Time;durP1;ratioP1;P1;durP2;ratioP2;P2;SDS_P1;SDS_P2;PMS_P1;PMS_P2;Temp;Humidity;BMP_temperature;BMP_pressure;BME280_temperature;BME280_humidity;BME280_pressure;Samples;Min_cycle;Max_cycle;Signal;HPM_P1;HPM_P2
2021/08/31 00:01:25;;;;;;;10.40;7.80;;;17.40;99.90;;;;;;4109018;28;20042;-69
2021/08/31 00:03:26;;;;;;;11.27;7.63;;;17.40;99.90;;;;;;4111108;28;20034;-69
2021/08/31 00:05:26;;;;;;;11.40;8.15;;;17.40;99.90;;;;;;4111286;28;20706;-69
2021/08/31 00:07:27;;;;;;;11.13;8.30;;;17.40;99.90;;;;;;4111504;28;20663;-69
2021/08/31 00:09:27;;;;;;;12.30;8.60;;;17.40;99.90;;;;;;4110882;28;20483;-69
2021/08/31 00:11:28;;;;;;;11.90;8.15;;;17.30;99.90;;;;;;4098262;28;20695;-70
2021/08/31 00:13:28;;;;;;;10.80;8.30;;;17.30;99.90;;;;;;4108530;28;20137;-69
2021/08/31 00:15:29;;;;;;;11.48;8.10;;;17.30;99.90;;;;;;4105440;28;20497;-69
2021/08/31 00:17:30;;;;;;;12.20;8.30;;;17.30;99.90;;;;;;4108074;28;20039;-69
2021/08/31 00:19:30;;;;;;;13.32;9.52;;;17.30;99.90;;;;;;4106860;28;20093;-69
2021/08/31 00:21:31;;;;;;;12.05;9.10;;;17.30;99.90;;;;;;4091464;28;20046;-69
2021/08/31 00:23:32;;;;;;;13.95;9.55;;;17.20;99.90;;;;;;4105760;28;20384;-70
2021/08/31 00:25:34;;;;;;;12.52;9.27;;;17.20;99.90;;;;;;4105582;28;20042;-69
2021/08/31 00:27:35;;;;;;;14.00;9.50;;;17.20;99.90;;;;;;4106868;28;20054;-69
2021/08/31 00:29:36;;;;;;;13.70;9.43;;;17.20;99.90;;;;;;4091391;28;20073;-69
2021/08/31 00:31:36;;;;;;;14.10;10.02;;;17.20;99.90;;;;;;4106328;28;20534;-69
2021/08/31 00:33:37;;;;;;;14.70;9.73;;;17.10;99.90;;;;;;4088534;29;20043;-70
2021/08/31 00:35:38;;;;;;;16.65;10.50;;;17.10;99.90;;;;;;4073367;29;20032;-70
2021/08/31 00:37:38;;;;;;;13.38;9.80;;;17.10;99.90;;;;;;4107267;28;20043;-69
2021/08/31 00:39:39;;;;;;;15.15;9.90;;;17.10;99.90;;;;;;4106707;28;20053;-69
2021/08/31 00:41:40;;;;;;;15.68;9.77;;;17.10;99.90;;;;;;4106036;28;20047;-70
2021/08/31 00:43:49;;;;;;;13.80;9.70;;;17.10;99.90;;;;;;4107897;28;20181;-70
2021/08/31 00:45:49;;;;;;;15.07;9.82;;;17.10;99.90;;;;;;4107368;28;20047;-69
2021/08/31 00:47:50;;;;;;;13.35;9.15;;;17.10;99.90;;;;;;4109311;28;20518;-69
2021/08/31 00:49:51;;;;;;;14.30;9.93;;;17.10;99.90;;;;;;4105492;28;20398;-70
2021/08/31 00:51:53;;;;;;;13.82;9.48;;;17.00;99.90;;;;;;4107288;28;20101;-69
2021/08/31 00:53:53;;;;;;;12.95;9.02;;;17.00;99.90;;;;;;4108939;28;20035;-69
2021/08/31 00:55:54;;;;;;;12.85;9.60;;;17.00;99.90;;;;;;4091834;29;20043;-70
2021/08/31 00:57:55;;;;;;;17.35;9.98;;;17.00;99.90;;;;;;4107173;28;20533;-70
2021/08/31 00:59:56;;;;;;;17.20;10.27;;;17.00;99.90;;;;;;4110545;28;20035;-69
2021/08/31 01:01:58;;;;;;;15.68;11.50;;;17.00;99.90;;;;;;4089622;28;20031;-70
2021/08/31 01:03:58;;;;;;;16.25;11.52;;;17.00;99.90;;;;;;4094638;28;20027;-70
2021/08/31 01:06:01;;;;;;;13.50;10.05;;;17.00;99.90;;;;;;4088919;28;20062;-70
2021/08/31 01:08:02;;;;;;;15.48;11.20;;;17.00;99.90;;;;;;4105924;28;20043;-69
2021/08/31 01:10:04;;;;;;;16.98;11.32;;;17.00;99.90;;;;;;4107401;28;20043;-69
2021/08/31 01:12:05;;;;;;;19.45;9.68;;;16.90;99.90;;;;;;4108069;28;20519;-69
2021/08/31 01:14:06;;;;;;;13.07;10.00;;;16.90;99.90;;;;;;4104213;28;20070;-70
2021/08/31 01:16:07;;;;;;;15.27;10.63;;;16.90;99.90;;;;;;4088576;29;20071;-69
2021/08/31 01:18:15;;;;;;;15.77;11.32;;;16.90;99.90;;;;;;4088259;28;20126;-69
2021/08/31 01:20:16;;;;;;;19.45;11.85;;;16.80;99.90;;;;;;4065280;28;20058;-69
2021/08/31 01:22:17;;;;;;;17.67;11.43;;;16.80;99.90;;;;;;4095062;28;20038;-70
2021/08/31 01:24:18;;;;;;;13.32;10.18;;;16.70;99.90;;;;;;4101791;28;20027;-70
2021/08/31 01:26:18;;;;;;;18.40;11.27;;;16.70;99.90;;;;;;4103164;28;20046;-70
2021/08/31 01:28:24;;;;;;;16.05;10.75;;;16.70;99.90;;;;;;4103021;28;20039;-69
2021/08/31 01:30:25;;;;;;;17.52;10.57;;;16.80;99.90;;;;;;4101459;28;20125;-69
2021/08/31 01:32:29;;;;;;;14.68;10.93;;;16.70;99.90;;;;;;4104399;28;20393;-69
2021/08/31 01:34:30;;;;;;;15.55;11.00;;;16.80;99.90;;;;;;4101779;28;20050;-69
2021/08/31 01:36:31;;;;;;;13.88;10.30;;;16.80;99.90;;;;;;4105941;28;20094;-69
2021/08/31 01:38:31;;;;;;;15.27;10.32;;;16.80;99.90;;;;;;4088323;28;20059;-69
2021/08/31 01:40:32;;;;;;;12.68;9.40;;;16.80;99.90;;;;;;4104237;28;20042;-70
2021/08/31 01:42:32;;;;;;;11.57;8.93;;;16.80;99.90;;;;;;4101604;28;20098;-70
2021/08/31 01:44:33;;;;;;;17.42;9.05;;;16.80;99.90;;;;;;4105595;28;20110;-70
2021/08/31 01:46:34;;;;;;;11.77;8.75;;;16.80;99.90;;;;;;4107636;28;20039;-69
2021/08/31 01:48:35;;;;;;;11.95;8.90;;;16.80;99.90;;;;;;4086883;28;20094;-70
2021/08/31 01:50:35;;;;;;;15.30;10.90;;;16.80;99.90;;;;;;4107348;28;20124;-69
2021/08/31 01:52:37;;;;;;;16.33;11.45;;;16.80;99.90;;;;;;4107896;28;20088;-70
2021/08/31 01:54:37;;;;;;;18.38;12.18;;;16.80;99.90;;;;;;4106235;28;20045;-70
2021/08/31 01:56:39;;;;;;;16.33;12.00;;;16.80;99.90;;;;;;4106581;28;20047;-70
2021/08/31 01:58:40;;;;;;;18.88;11.65;;;16.70;99.90;;;;;;4105544;28;20474;-70
2021/08/31 02:00:40;;;;;;;15.93;11.23;;;16.70;99.90;;;;;;4090154;29;20033;-70
2021/08/31 02:02:41;;;;;;;16.27;12.45;;;16.70;99.90;;;;;;4107473;28;20038;-70
2021/08/31 02:04:41;;;;;;;16.48;11.32;;;16.60;99.90;;;;;;4106728;28;20031;-70
2021/08/31 02:06:42;;;;;;;24.10;13.60;;;16.60;99.90;;;;;;4090835;29;20037;-70
2021/08/31 02:08:42;;;;;;;16.33;11.50;;;16.50;99.90;;;;;;4107135;28;22243;-70
2021/08/31 02:10:43;;;;;;;15.88;10.93;;;16.50;99.90;;;;;;4107341;28;20127;-70
2021/08/31 02:12:44;;;;;;;19.10;11.68;;;16.50;99.90;;;;;;4107795;28;20026;-70
2021/08/31 02:14:45;;;;;;;18.58;11.68;;;16.50;99.90;;;;;;4104137;28;20066;-70
2021/08/31 02:16:45;;;;;;;18.75;11.90;;;16.50;99.90;;;;;;4106305;28;20121;-69
2021/08/31 02:18:46;;;;;;;14.88;11.35;;;16.50;99.90;;;;;;4103207;28;20386;-70
2021/08/31 02:20:46;;;;;;;16.67;11.32;;;16.50;99.90;;;;;;4104170;28;20607;-70
2021/08/31 02:22:47;;;;;;;17.58;12.20;;;16.50;99.90;;;;;;4089340;29;20035;-69
2021/08/31 02:24:48;;;;;;;18.35;13.25;;;16.50;99.90;;;;;;4103538;28;20041;-70
2021/08/31 02:26:49;;;;;;;18.55;11.88;;;16.50;99.90;;;;;;4102497;28;20046;-70
2021/08/31 02:28:49;;;;;;;19.30;11.10;;;16.40;99.90;;;;;;4104587;28;20038;-69
2021/08/31 02:30:50;;;;;;;20.30;13.57;;;16.40;99.90;;;;;;4088831;29;20023;-69
2021/08/31 02:32:51;;;;;;;19.48;13.57;;;16.40;99.90;;;;;;4104421;28;20486;-70
2021/08/31 02:34:51;;;;;;;16.83;12.25;;;16.30;99.90;;;;;;4102216;28;20106;-69
2021/08/31 02:36:52;;;;;;;20.67;13.75;;;16.30;99.90;;;;;;4101537;28;20050;-69
2021/08/31 02:38:52;;;;;;;20.75;13.40;;;16.30;99.90;;;;;;4102332;28;20122;-69
2021/08/31 02:40:53;;;;;;;19.40;13.43;;;16.30;99.90;;;;;;4105584;28;20087;-70
2021/08/31 02:42:54;;;;;;;23.92;16.10;;;16.30;99.90;;;;;;4104243;28;20035;-69
2021/08/31 02:44:54;;;;;;;27.73;17.23;;;16.30;99.90;;;;;;4103312;28;20513;-69
2021/08/31 02:46:55;;;;;;;25.83;18.02;;;16.30;99.90;;;;;;4088983;28;20053;-69
2021/08/31 02:48:55;;;;;;;27.10;18.50;;;16.20;99.90;;;;;;4103393;28;20153;-69
2021/08/31 02:50:56;;;;;;;27.92;17.55;;;16.20;99.90;;;;;;4104801;28;20031;-69
2021/08/31 02:52:57;;;;;;;26.27;16.52;;;16.20;99.90;;;;;;4105259;28;20027;-70
2021/08/31 02:54:57;;;;;;;29.75;17.75;;;16.20;99.90;;;;;;4104226;28;20041;-69
2021/08/31 02:56:58;;;;;;;31.92;19.58;;;16.30;99.90;;;;;;4087798;28;20050;-69
2021/08/31 02:58:58;;;;;;;31.90;19.65;;;16.30;99.90;;;;;;4102926;28;20042;-69
2021/08/31 03:01:05;;;;;;;32.47;21.27;;;16.30;99.90;;;;;;4086822;28;20134;-70
2021/08/31 03:03:06;;;;;;;33.00;21.40;;;16.30;99.90;;;;;;4102534;28;20038;-70
2021/08/31 03:05:07;;;;;;;30.73;20.27;;;16.30;99.90;;;;;;4107193;28;20114;-70
2021/08/31 03:07:10;;;;;;;32.92;21.35;;;16.30;99.90;;;;;;4107832;28;20378;-70
2021/08/31 03:09:11;;;;;;;30.95;19.63;;;16.40;99.90;;;;;;4105191;28;20038;-70
2021/08/31 03:11:11;;;;;;;29.23;20.45;;;16.30;99.90;;;;;;4107139;28;20118;-70
2021/08/31 03:13:12;;;;;;;29.50;20.02;;;16.30;99.90;;;;;;4109698;28;20042;-69
2021/08/31 03:15:12;;;;;;;34.75;21.20;;;16.40;99.90;;;;;;4109480;28;20047;-70
2021/08/31 03:17:13;;;;;;;31.50;20.45;;;16.30;99.90;;;;;;4110043;28;20042;-70
2021/08/31 03:19:15;;;;;;;30.92;19.70;;;16.40;99.90;;;;;;4110523;28;20066;-69
2021/08/31 03:21:15;;;;;;;28.77;19.95;;;16.40;99.90;;;;;;4092273;29;20488;-70
2021/08/31 03:23:16;;;;;;;28.65;17.98;;;16.30;99.90;;;;;;4107337;28;20045;-70
2021/08/31 03:25:17;;;;;;;26.15;17.95;;;16.30;99.90;;;;;;4109075;28;20182;-69
2021/08/31 03:27:17;;;;;;;31.35;20.35;;;16.40;99.90;;;;;;4093376;28;20447;-70
2021/08/31 03:29:18;;;;;;;28.05;19.02;;;16.40;99.90;;;;;;4105544;28;20039;-69
2021/08/31 03:31:18;;;;;;;27.42;18.15;;;16.40;99.90;;;;;;4110054;28;20050;-70
2021/08/31 03:33:19;;;;;;;26.42;18.17;;;16.40;99.90;;;;;;4109739;28;20042;-70
2021/08/31 03:35:21;;;;;;;27.85;18.90;;;16.40;99.90;;;;;;4092092;29;20035;-70
2021/08/31 03:37:21;;;;;;;34.13;21.27;;;16.40;99.90;;;;;;4107986;28;20047;-70
2021/08/31 03:39:22;;;;;;;29.60;19.45;;;16.40;99.90;;;;;;4106777;28;20094;-69
2021/08/31 03:41:23;;;;;;;25.65;16.00;;;16.40;99.90;;;;;;4108422;28;20129;-70
2021/08/31 03:43:23;;;;;;;27.05;18.83;;;16.40;99.90;;;;;;4092537;29;20625;-69
2021/08/31 03:45:24;;;;;;;26.67;18.48;;;16.40;99.90;;;;;;4109673;28;20125;-69
2021/08/31 03:47:25;;;;;;;26.27;17.25;;;16.30;99.90;;;;;;4109907;28;20039;-70
2021/08/31 03:49:25;;;;;;;22.73;16.40;;;16.40;99.90;;;;;;4108218;28;20041;-70
2021/08/31 03:51:26;;;;;;;25.23;16.55;;;16.40;99.90;;;;;;4106138;28;20047;-70
2021/08/31 03:53:26;;;;;;;22.55;15.80;;;16.50;99.90;;;;;;4092719;28;20035;-70
2021/08/31 03:55:27;;;;;;;24.70;15.63;;;16.50;99.90;;;;;;4088098;29;20043;-70
2021/08/31 03:57:28;;;;;;;23.58;16.45;;;16.60;99.90;;;;;;4108570;28;20129;-69
2021/08/31 03:59:28;;;;;;;24.58;16.55;;;16.50;99.90;;;;;;4091753;29;20043;-69
2021/08/31 04:01:29;;;;;;;24.60;17.50;;;16.50;99.90;;;;;;4107050;28;20047;-70
2021/08/31 04:03:29;;;;;;;24.10;16.27;;;16.60;99.90;;;;;;4076407;29;20119;-70
2021/08/31 04:05:30;;;;;;;24.58;16.48;;;16.60;99.90;;;;;;4108469;28;20450;-70
2021/08/31 04:07:31;;;;;;;27.67;17.20;;;16.60;99.90;;;;;;4109616;28;20039;-69
2021/08/31 04:09:32;;;;;;;26.85;18.42;;;16.50;99.90;;;;;;4112796;28;20038;-70
2021/08/31 04:11:32;;;;;;;25.92;18.25;;;16.50;99.90;;;;;;4109384;28;20055;-70
2021/08/31 04:13:33;;;;;;;21.92;16.17;;;16.50;99.90;;;;;;4091581;29;20103;-70
2021/08/31 04:15:34;;;;;;;23.67;17.05;;;16.50;99.90;;;;;;4108624;28;20415;-70
2021/08/31 04:17:34;;;;;;;23.45;15.90;;;16.60;99.90;;;;;;4106525;28;20583;-70
2021/08/31 04:19:35;;;;;;;23.80;16.33;;;16.60;99.90;;;;;;4109542;28;20061;-70
2021/08/31 04:21:35;;;;;;;27.17;17.98;;;16.60;99.90;;;;;;4104695;28;20061;-70
2021/08/31 04:23:36;;;;;;;24.83;16.95;;;16.60;99.90;;;;;;4108736;28;20046;-70
2021/08/31 04:25:37;;;;;;;23.15;15.27;;;16.50;99.90;;;;;;4091846;29;20099;-69
2021/08/31 04:27:37;;;;;;;21.27;15.45;;;16.60;99.90;;;;;;4104354;28;20038;-70
2021/08/31 04:29:38;;;;;;;24.75;16.48;;;16.60;99.90;;;;;;4087446;29;20047;-70
2021/08/31 04:31:38;;;;;;;22.23;16.40;;;16.60;99.90;;;;;;4095884;28;20039;-70
2021/08/31 04:33:39;;;;;;;21.45;15.00;;;16.60;99.90;;;;;;4114370;28;20057;-69
2021/08/31 04:35:40;;;;;;;20.45;15.07;;;16.60;99.90;;;;;;4092304;29;20495;-70
2021/08/31 04:37:40;;;;;;;23.42;15.85;;;16.60;99.90;;;;;;4097227;28;20062;-70
2021/08/31 04:39:41;;;;;;;25.75;17.60;;;16.60;99.90;;;;;;4107603;28;20660;-70
2021/08/31 04:41:41;;;;;;;21.73;15.15;;;16.60;99.90;;;;;;4106873;28;20145;-70
2021/08/31 04:43:42;;;;;;;20.50;14.95;;;16.60;99.90;;;;;;4108211;28;20033;-70
2021/08/31 04:45:43;;;;;;;23.10;15.68;;;16.60;99.90;;;;;;4090429;28;20155;-70
2021/08/31 04:47:43;;;;;;;23.50;15.02;;;16.60;99.90;;;;;;4109345;28;20042;-70
2021/08/31 04:49:44;;;;;;;25.05;16.27;;;16.60;99.90;;;;;;4109292;28;20086;-70
2021/08/31 04:51:44;;;;;;;28.48;18.60;;;16.70;99.90;;;;;;4111165;28;20505;-69
2021/08/31 04:53:45;;;;;;;22.17;15.65;;;16.60;99.90;;;;;;4108307;28;20108;-70
2021/08/31 04:55:46;;;;;;;23.58;16.33;;;16.60;99.90;;;;;;4113160;28;20050;-69
2021/08/31 04:57:47;;;;;;;24.67;16.45;;;16.60;99.90;;;;;;4107119;28;20039;-69
2021/08/31 04:59:47;;;;;;;23.40;15.95;;;16.50;99.90;;;;;;4111160;28;20129;-69
2021/08/31 05:01:48;;;;;;;23.13;16.00;;;16.50;99.90;;;;;;4093780;28;20053;-69
2021/08/31 05:03:49;;;;;;;19.48;14.05;;;16.50;99.90;;;;;;4108135;28;20125;-69
2021/08/31 05:05:49;;;;;;;17.20;13.38;;;16.50;99.90;;;;;;4110235;28;20053;-69
2021/08/31 05:07:50;;;;;;;18.50;14.35;;;16.60;99.90;;;;;;4094685;28;20100;-69
2021/08/31 05:09:51;;;;;;;21.55;15.90;;;16.60;99.90;;;;;;4106730;28;20442;-69
2021/08/31 05:11:51;;;;;;;21.80;15.30;;;16.60;99.90;;;;;;4107237;28;20042;-69
2021/08/31 05:13:52;;;;;;;20.48;13.98;;;16.50;99.90;;;;;;4106027;28;20073;-69
2021/08/31 05:15:53;;;;;;;22.08;15.32;;;16.60;99.90;;;;;;4113210;28;20078;-70
2021/08/31 05:17:54;;;;;;;21.02;14.93;;;16.50;99.90;;;;;;4108063;28;20065;-69
2021/08/31 05:19:56;;;;;;;23.95;17.42;;;16.50;99.90;;;;;;4110903;28;20035;-70
2021/08/31 05:21:58;;;;;;;23.13;16.20;;;16.50;99.90;;;;;;4112158;28;21245;-69
2021/08/31 05:23:59;;;;;;;24.10;15.65;;;16.40;99.90;;;;;;4096935;28;20489;-70
2021/08/31 05:26:00;;;;;;;22.83;15.65;;;16.40;99.90;;;;;;4108924;28;20053;-69
2021/08/31 05:28:01;;;;;;;21.60;15.23;;;16.40;99.90;;;;;;4107679;28;20117;-69
2021/08/31 05:30:02;;;;;;;22.50;16.08;;;16.40;99.90;;;;;;4107227;28;20054;-69
2021/08/31 05:32:03;;;;;;;23.98;15.95;;;16.40;99.90;;;;;;4108265;28;20043;-70
2021/08/31 05:34:03;;;;;;;23.17;16.17;;;16.40;99.90;;;;;;4107705;28;20034;-70
2021/08/31 05:36:04;;;;;;;24.10;15.50;;;16.40;99.90;;;;;;4110867;28;20034;-70
2021/08/31 05:38:05;;;;;;;26.33;16.88;;;16.40;99.90;;;;;;4108533;28;20088;-70
2021/08/31 05:40:07;;;;;;;20.10;14.23;;;16.30;99.90;;;;;;4109754;28;20062;-69
2021/08/31 05:42:09;;;;;;;21.00;14.97;;;16.30;99.90;;;;;;4106360;28;20084;-70
2021/08/31 05:44:09;;;;;;;19.30;13.98;;;16.40;99.90;;;;;;4103251;28;20038;-70
2021/08/31 05:46:10;;;;;;;21.10;13.85;;;16.40;99.90;;;;;;4097252;28;20053;-70
2021/08/31 05:48:11;;;;;;;19.48;12.98;;;16.40;99.90;;;;;;4110312;28;20042;-70
2021/08/31 05:50:11;;;;;;;17.23;12.63;;;16.40;99.90;;;;;;4106956;28;20031;-70
2021/08/31 05:52:12;;;;;;;18.02;13.43;;;16.40;99.90;;;;;;4109542;28;20045;-70
2021/08/31 05:54:13;;;;;;;17.33;13.38;;;16.40;99.90;;;;;;4108221;28;20631;-70
2021/08/31 05:56:13;;;;;;;20.55;14.20;;;16.40;99.90;;;;;;4105010;28;20596;-70
2021/08/31 05:58:15;;;;;;;20.08;15.45;;;16.40;99.90;;;;;;4092491;28;21177;-70
2021/08/31 06:00:17;;;;;;;24.27;14.88;;;16.40;99.90;;;;;;4114941;28;20702;-70
2021/08/31 06:02:18;;;;;;;25.30;17.08;;;16.30;99.90;;;;;;4094916;28;20043;-69
2021/08/31 06:04:22;;;;;;;24.27;16.55;;;16.30;99.90;;;;;;4107630;28;20045;-69
2021/08/31 06:06:22;;;;;;;27.65;15.15;;;16.20;99.90;;;;;;4097303;28;20043;-70
2021/08/31 06:08:23;;;;;;;27.02;15.88;;;16.20;99.90;;;;;;4102661;28;20042;-70
2021/08/31 06:10:24;;;;;;;24.75;16.40;;;16.20;99.90;;;;;;4105794;28;20449;-69
2021/08/31 06:12:24;;;;;;;22.10;15.15;;;16.10;99.90;;;;;;4075002;29;20237;-70
2021/08/31 06:14:25;;;;;;;21.13;15.13;;;16.10;99.90;;;;;;4105500;28;21171;-69
2021/08/31 06:16:25;;;;;;;19.20;13.40;;;16.10;99.90;;;;;;4111879;28;20043;-69
2021/08/31 06:18:26;;;;;;;23.27;15.52;;;16.20;99.90;;;;;;4089312;28;20035;-70
2021/08/31 06:20:26;;;;;;;20.98;14.95;;;16.20;99.90;;;;;;4095530;28;20047;-69
2021/08/31 06:22:27;;;;;;;22.67;14.80;;;16.20;99.90;;;;;;4110537;28;20061;-69
2021/08/31 06:24:28;;;;;;;21.48;15.35;;;16.20;99.90;;;;;;4109713;28;20058;-69
2021/08/31 06:26:28;;;;;;;20.42;14.73;;;16.20;99.90;;;;;;4111607;28;20046;-70
2021/08/31 06:28:29;;;;;;;24.33;16.27;;;16.20;99.90;;;;;;4106909;28;20134;-70
2021/08/31 06:30:30;;;;;;;20.30;13.95;;;16.20;99.90;;;;;;4106298;28;20031;-70
2021/08/31 06:32:30;;;;;;;23.58;14.05;;;16.30;99.90;;;;;;4106972;28;20046;-69
2021/08/31 06:34:31;;;;;;;19.70;14.27;;;16.30;99.90;;;;;;4094041;28;20053;-69
2021/08/31 06:36:31;;;;;;;27.30;15.68;;;16.30;99.90;;;;;;4103642;28;20109;-69
2021/08/31 06:38:32;;;;;;;19.33;14.38;;;16.40;99.90;;;;;;4111314;28;20038;-69
2021/08/31 06:40:33;;;;;;;21.20;13.88;;;16.30;99.90;;;;;;4105004;28;20402;-70
2021/08/31 06:42:33;;;;;;;20.48;14.95;;;16.40;99.90;;;;;;4105667;28;20126;-69
2021/08/31 06:44:34;;;;;;;18.40;13.98;;;16.40;99.90;;;;;;4108609;28;20391;-69
2021/08/31 06:46:34;;;;;;;22.35;15.35;;;16.40;99.90;;;;;;4079912;29;20492;-69
2021/08/31 06:48:35;;;;;;;21.20;14.57;;;16.50;99.90;;;;;;4110204;28;20042;-69
2021/08/31 06:50:36;;;;;;;19.30;13.68;;;16.50;99.90;;;;;;4105089;28;20039;-70
2021/08/31 06:52:36;;;;;;;22.15;13.25;;;16.50;99.90;;;;;;4109848;28;20097;-69
2021/08/31 06:54:37;;;;;;;21.98;15.23;;;16.50;99.90;;;;;;4089876;28;20044;-70
2021/08/31 06:56:38;;;;;;;18.75;13.20;;;16.50;99.90;;;;;;4096322;28;25437;-69
2021/08/31 06:58:38;;;;;;;25.05;14.52;;;16.50;99.90;;;;;;4106841;28;20419;-69
2021/08/31 07:00:39;;;;;;;25.55;15.73;;;16.50;99.90;;;;;;4107747;28;20089;-70
2021/08/31 07:02:40;;;;;;;20.63;13.85;;;16.50;99.90;;;;;;4108339;28;20034;-70
2021/08/31 07:04:40;;;;;;;19.98;14.07;;;16.50;99.90;;;;;;4108034;28;20122;-69
2021/08/31 07:06:41;;;;;;;20.90;13.57;;;16.50;99.90;;;;;;4093248;28;20054;-69
2021/08/31 07:08:42;;;;;;;20.23;13.13;;;16.50;99.90;;;;;;4104142;28;20522;-70
2021/08/31 07:10:42;;;;;;;23.75;13.88;;;16.50;99.90;;;;;;4107633;28;20578;-69
2021/08/31 07:12:43;;;;;;;18.88;12.77;;;16.50;99.90;;;;;;4108734;28;20125;-70
2021/08/31 07:14:44;;;;;;;21.33;14.45;;;16.50;99.90;;;;;;4108626;28;20077;-69
2021/08/31 07:16:44;;;;;;;22.45;14.05;;;16.50;99.90;;;;;;4091213;28;22130;-70
2021/08/31 07:18:45;;;;;;;20.58;12.65;;;16.50;99.90;;;;;;4108444;28;20043;-70
2021/08/31 07:20:46;;;;;;;23.20;12.82;;;16.50;99.90;;;;;;4107736;28;20427;-70
2021/08/31 07:22:46;;;;;;;18.83;12.75;;;16.50;99.90;;;;;;4089463;28;20039;-70
2021/08/31 07:24:47;;;;;;;19.92;12.02;;;16.50;99.90;;;;;;4089984;28;20114;-70
2021/08/31 07:26:48;;;;;;;20.50;11.77;;;16.50;99.90;;;;;;4105397;28;20127;-70
2021/08/31 07:28:49;;;;;;;15.60;10.10;;;16.50;99.90;;;;;;4106718;28;20039;-70
2021/08/31 07:30:50;;;;;;;15.40;10.23;;;16.50;99.90;;;;;;4105810;28;20331;-69
2021/08/31 07:32:50;;;;;;;19.42;10.60;;;16.60;99.90;;;;;;4110180;28;20044;-69
2021/08/31 07:34:51;;;;;;;17.85;10.77;;;16.60;99.90;;;;;;4107612;28;20548;-70
2021/08/31 07:36:51;;;;;;;19.35;11.45;;;16.60;99.90;;;;;;4107364;28;20050;-70
2021/08/31 07:38:54;;;;;;;15.52;10.25;;;16.60;99.90;;;;;;4106219;28;20054;-70
2021/08/31 07:40:55;;;;;;;17.70;11.60;;;16.60;99.90;;;;;;4105222;28;20491;-70
2021/08/31 07:42:56;;;;;;;17.70;10.98;;;16.70;99.90;;;;;;4105344;28;20129;-69
2021/08/31 07:44:56;;;;;;;16.45;10.55;;;16.70;99.90;;;;;;4091145;28;20103;-70
2021/08/31 07:46:57;;;;;;;21.17;11.90;;;16.70;99.90;;;;;;4113077;28;20096;-69
2021/08/31 07:48:58;;;;;;;13.90;9.15;;;16.70;99.90;;;;;;4106391;28;20042;-70
2021/08/31 07:50:59;;;;;;;18.60;10.88;;;16.80;99.90;;;;;;4104214;28;20047;-70
2021/08/31 07:52:59;;;;;;;14.43;9.23;;;16.80;99.90;;;;;;4107572;28;20034;-70
2021/08/31 07:55:01;;;;;;;16.38;9.93;;;16.80;99.90;;;;;;4107208;28;20039;-71
2021/08/31 07:57:02;;;;;;;18.08;10.32;;;16.80;99.90;;;;;;4107694;28;20043;-70
2021/08/31 07:59:03;;;;;;;14.65;9.23;;;16.80;99.90;;;;;;4106149;28;20034;-70
2021/08/31 08:01:04;;;;;;;16.10;10.52;;;16.90;99.90;;;;;;4089583;28;20047;-70
2021/08/31 08:03:05;;;;;;;16.23;9.85;;;16.90;99.90;;;;;;4106911;28;20281;-70
2021/08/31 08:05:07;;;;;;;16.95;10.00;;;16.90;99.90;;;;;;4106580;28;20151;-70
2021/08/31 08:07:08;;;;;;;14.32;9.48;;;16.90;99.90;;;;;;4094635;28;20071;-70
2021/08/31 08:09:09;;;;;;;17.20;9.73;;;17.00;99.90;;;;;;4106147;28;20042;-70
2021/08/31 08:11:10;;;;;;;26.27;12.85;;;17.00;99.90;;;;;;4104670;28;20507;-70
2021/08/31 08:13:11;;;;;;;22.85;12.35;;;17.00;99.90;;;;;;4075471;28;20057;-70
2021/08/31 08:15:12;;;;;;;21.83;11.75;;;16.90;99.90;;;;;;4106921;28;20045;-70
2021/08/31 08:17:13;;;;;;;18.80;10.77;;;17.00;99.90;;;;;;4107144;28;20055;-70
2021/08/31 08:19:13;;;;;;;18.65;10.65;;;16.90;99.90;;;;;;4109448;28;20559;-70
2021/08/31 08:21:15;;;;;;;20.17;11.77;;;17.00;99.90;;;;;;4106908;28;20038;-70
2021/08/31 08:23:16;;;;;;;17.65;10.18;;;17.00;99.90;;;;;;4082855;28;21006;-70
2021/08/31 08:25:16;;;;;;;19.13;10.85;;;17.00;99.90;;;;;;4083712;28;20031;-70
2021/08/31 08:27:17;;;;;;;19.05;10.55;;;17.10;99.90;;;;;;4072670;28;20062;-70
2021/08/31 08:29:19;;;;;;;16.27;9.35;;;17.10;99.90;;;;;;4105407;28;20141;-70
2021/08/31 08:31:20;;;;;;;16.30;9.65;;;17.10;99.90;;;;;;4098832;28;20045;-70
2021/08/31 08:33:21;;;;;;;16.95;9.82;;;17.20;99.90;;;;;;4084139;28;20180;-70
2021/08/31 08:35:22;;;;;;;19.45;9.63;;;17.20;99.90;;;;;;4096481;28;20054;-70
2021/08/31 08:37:24;;;;;;;16.40;9.00;;;17.20;99.90;;;;;;4086989;28;20586;-70
2021/08/31 08:39:25;;;;;;;17.20;9.70;;;17.20;99.90;;;;;;4083713;28;20074;-70
2021/08/31 08:41:26;;;;;;;14.20;8.60;;;17.30;99.90;;;;;;4096904;28;20487;-70
2021/08/31 08:43:26;;;;;;;15.30;8.25;;;17.30;99.90;;;;;;4083137;28;20303;-70
2021/08/31 08:45:28;;;;;;;13.38;8.07;;;17.40;99.90;;;;;;4097303;28;20051;-70
2021/08/31 08:47:28;;;;;;;14.50;8.90;;;17.40;99.90;;;;;;4094949;28;20162;-70
2021/08/31 08:49:30;;;;;;;15.35;8.60;;;17.40;99.90;;;;;;4087449;28;20071;-70
2021/08/31 08:51:31;;;;;;;15.77;8.95;;;17.50;99.90;;;;;;4103657;28;20138;-70
2021/08/31 08:53:34;;;;;;;17.08;10.15;;;17.50;99.90;;;;;;4103817;28;20066;-70
2021/08/31 08:55:34;;;;;;;16.75;9.20;;;17.50;99.90;;;;;;4092104;28;20039;-70
2021/08/31 08:57:36;;;;;;;16.33;9.32;;;17.50;99.90;;;;;;4104936;28;20045;-70
2021/08/31 08:59:41;;;;;;;16.02;9.55;;;17.50;99.90;;;;;;4111649;28;20070;-70
2021/08/31 09:01:44;;;;;;;16.50;9.35;;;17.50;99.90;;;;;;4105227;28;20035;-70
2021/08/31 09:03:53;;;;;;;14.52;8.40;;;17.50;99.90;;;;;;4104005;28;20046;-70
2021/08/31 09:06:14;;;;;;;14.13;8.50;;;17.60;99.90;;;;;;4072507;29;20043;-70
2021/08/31 09:08:15;;;;;;;15.77;8.10;;;17.60;99.90;;;;;;4103272;28;20035;-70
2021/08/31 09:10:20;;;;;;;14.32;8.32;;;17.70;99.90;;;;;;4099451;28;20054;-70
2021/08/31 09:12:34;;;;;;;14.07;8.18;;;17.70;99.90;;;;;;4100887;28;20090;-70
2021/08/31 09:14:39;;;;;;;17.25;8.40;;;17.80;99.90;;;;;;4085294;28;20537;-70
2021/08/31 09:16:40;;;;;;;18.60;9.07;;;17.80;99.90;;;;;;4091329;28;20038;-70
2021/08/31 09:18:50;;;;;;;13.40;7.78;;;17.90;99.90;;;;;;4103074;28;20051;-70
2021/08/31 09:20:53;;;;;;;16.77;8.30;;;17.90;99.90;;;;;;4084555;28;20062;-70
2021/08/31 09:22:53;;;;;;;14.55;8.32;;;17.90;99.90;;;;;;4106010;28;20335;-70
2021/08/31 09:25:08;;;;;;;14.00;7.75;;;18.00;99.90;;;;;;4101519;28;20449;-70
2021/08/31 09:27:09;;;;;;;18.50;7.72;;;18.00;99.90;;;;;;4103283;28;20037;-70
2021/08/31 09:29:21;;;;;;;17.67;8.88;;;18.00;99.90;;;;;;4102512;28;20130;-70
2021/08/31 09:31:23;;;;;;;12.60;7.30;;;18.10;99.90;;;;;;4108513;28;20772;-70
2021/08/31 09:33:26;;;;;;;13.38;7.75;;;18.20;99.90;;;;;;4086157;28;20131;-70
2021/08/31 09:35:36;;;;;;;;;;;18.20;99.90;;;;;;4087604;28;20046;-70
2021/08/31 09:37:38;;;;;;;14.68;7.43;;;18.20;99.90;;;;;;4085554;28;19914;-70
2021/08/31 09:39:38;;;;;;;13.15;6.95;;;18.20;99.90;;;;;;4086591;28;20072;-70
2021/08/31 09:41:44;;;;;;;12.20;6.97;;;18.30;99.90;;;;;;4090182;28;20032;-70
2021/08/31 09:43:49;;;;;;;9.88;6.20;;;18.40;99.90;;;;;;4089359;28;20137;-70
2021/08/31 09:45:51;;;;;;;10.40;6.00;;;18.50;99.90;;;;;;4109466;28;20031;-70
2021/08/31 09:47:53;;;;;;;9.32;5.97;;;18.60;99.90;;;;;;4090985;28;20118;-70
2021/08/31 09:49:54;;;;;;;16.33;7.57;;;18.70;99.90;;;;;;4083922;28;20050;-70
2021/08/31 09:52:14;;;;;;;17.23;8.00;;;18.80;99.90;;;;;;4104880;28;20118;-70
2021/08/31 09:54:23;;;;;;;16.90;7.50;;;18.80;99.90;;;;;;4105594;28;20179;-70
2021/08/31 09:56:28;;;;;;;12.82;6.15;;;18.80;99.90;;;;;;4088633;28;20106;-70
2021/08/31 09:58:30;;;;;;;10.88;6.55;;;18.80;99.90;;;;;;4108677;28;20057;-70
2021/08/31 10:00:31;;;;;;;10.38;6.30;;;18.80;99.90;;;;;;4088786;28;20039;-70
2021/08/31 10:02:32;;;;;;;12.52;6.47;;;18.80;99.90;;;;;;4108035;28;20038;-70
2021/08/31 10:04:32;;;;;;;13.65;6.65;;;18.90;99.90;;;;;;4107923;28;20038;-70
2021/08/31 10:06:34;;;;;;;15.18;6.00;;;18.90;99.90;;;;;;4106097;28;20096;-70
2021/08/31 10:08:39;;;;;;;10.57;6.18;;;19.10;99.90;;;;;;4111987;28;20037;-70
2021/08/31 10:10:41;;;;;;;9.35;5.43;;;19.10;99.90;;;;;;4075068;29;20035;-70
2021/08/31 10:12:42;;;;;;;;;;;19.20;99.90;;;;;;4108033;28;20104;-71
2021/08/31 10:14:44;;;;;;;10.93;5.85;;;19.30;99.90;;;;;;4090024;28;20432;-70
2021/08/31 10:16:45;;;;;;;12.98;6.40;;;19.50;99.90;;;;;;4110406;28;20092;-71
2021/08/31 10:18:46;;;;;;;11.75;6.47;;;19.60;99.90;;;;;;4092341;28;20050;-70